createdAt,value
2018-01-12T00:00:32.766Z,0
2018-01-12T00:01:42.706Z,0
2018-01-12T00:02:52.395Z,0
2018-01-12T00:04:02.340Z,0
2018-01-12T00:05:12.279Z,0
2018-01-12T00:06:22.252Z,0
2018-01-12T00:07:32.193Z,0
2018-01-12T00:08:42.138Z,0
2018-01-12T00:09:52.095Z,0
2018-01-12T00:11:01.797Z,0
2018-01-12T00:12:11.500Z,0
2018-01-12T00:13:21.460Z,0
2018-01-12T00:14:31.404Z,0
2018-01-12T00:15:41.349Z,0
2018-01-12T00:16:51.299Z,0
2018-01-12T00:18:01.252Z,0
2018-01-12T00:19:10.935Z,0
2018-01-12T00:20:20.887Z,0
2018-01-12T00:21:31.084Z,0
2018-01-12T00:22:41.032Z,0
2018-01-12T00:23:50.977Z,0
2018-01-12T00:25:00.660Z,0
2018-01-12T00:26:10.617Z,0
2018-01-12T00:27:20.299Z,0
2018-01-12T00:28:30.230Z,0
2018-01-12T00:29:40.173Z,0
2018-01-12T00:30:50.121Z,0
2018-01-12T00:31:59.805Z,0
2018-01-12T00:33:09.754Z,0
2018-01-12T00:34:19.717Z,0
2018-01-12T00:35:29.403Z,0
2018-01-12T00:36:39.353Z,0
2018-01-12T00:37:49.301Z,0
2018-01-12T00:38:59.261Z,0
2018-01-12T00:40:08.972Z,0
2018-01-12T00:41:18.402Z,0
2018-01-12T00:42:28.350Z,0
2018-01-12T00:43:38.046Z,0
2018-01-12T00:44:47.744Z,0
2018-01-12T00:45:57.698Z,0
2018-01-12T00:47:07.382Z,0
2018-01-12T00:48:17.326Z,0
2018-01-12T00:49:27.017Z,0
2018-01-12T00:50:36.969Z,0
2018-01-12T00:51:46.929Z,0
2018-01-12T00:52:56.879Z,0
2018-01-12T00:54:06.580Z,0
2018-01-12T00:55:16.550Z,0
2018-01-12T00:56:26.244Z,0
2018-01-12T00:57:35.939Z,0
2018-01-12T00:58:45.617Z,0
2018-01-12T00:59:55.567Z,0
2018-01-12T01:01:05.316Z,0
2018-01-12T01:02:15.249Z,0
2018-01-12T01:03:24.684Z,0
2018-01-12T01:04:34.367Z,0
2018-01-12T01:05:44.318Z,0
2018-01-12T01:06:54.284Z,0
2018-01-12T01:08:03.974Z,0
2018-01-12T01:09:13.926Z,0
2018-01-12T01:10:23.875Z,0
2018-01-12T01:11:33.814Z,0
2018-01-12T01:12:43.766Z,0
2018-01-12T01:13:53.458Z,0
2018-01-12T01:15:03.176Z,0
2018-01-12T01:16:13.191Z,0
2018-01-12T01:17:23.139Z,0
2018-01-12T01:18:32.829Z,0
2018-01-12T01:19:42.510Z,0
2018-01-12T01:20:52.484Z,0
2018-01-12T01:22:02.432Z,0
2018-01-12T01:23:12.382Z,0
2018-01-12T01:24:22.336Z,0
2018-01-12T01:25:32.283Z,0
2018-01-12T01:26:42.292Z,0
2018-01-12T01:27:52.233Z,0
2018-01-12T01:29:02.184Z,0
2018-01-12T01:30:11.877Z,0
2018-01-12T01:31:21.832Z,0
2018-01-12T01:32:31.785Z,0
2018-01-12T01:33:41.727Z,0
2018-01-12T01:34:51.668Z,0
2018-01-12T01:36:01.358Z,0
2018-01-12T01:37:11.307Z,0
2018-01-12T01:38:21.253Z,0
2018-01-12T01:39:31.204Z,0
2018-01-12T01:40:41.144Z,0
2018-01-12T01:41:51.094Z,0
2018-01-12T01:43:01.043Z,0
2018-01-12T01:44:10.732Z,0
2018-01-12T01:45:20.418Z,0
2018-01-12T01:46:29.843Z,0
2018-01-12T01:47:39.532Z,0
2018-01-12T01:48:49.469Z,0
2018-01-12T01:49:59.436Z,0
2018-01-12T01:51:09.398Z,0
2018-01-12T01:52:19.098Z,0
2018-01-12T01:53:29.042Z,0
2018-01-12T01:54:38.987Z,0
2018-01-12T01:55:48.934Z,0
2018-01-12T01:56:58.630Z,0
2018-01-12T01:58:08.568Z,0
2018-01-12T01:59:18.510Z,0
2018-01-12T02:00:28.462Z,0
2018-01-12T02:01:38.397Z,0
2018-01-12T02:02:48.335Z,0
2018-01-12T02:03:58.333Z,0
2018-01-12T02:05:08.286Z,0
2018-01-12T02:06:17.964Z,0
2018-01-12T02:07:27.901Z,0
2018-01-12T02:08:37.591Z,0
2018-01-12T02:09:47.553Z,0
2018-01-12T02:10:57.513Z,0
2018-01-12T02:12:06.989Z,0
2018-01-12T02:13:16.692Z,0
2018-01-12T02:14:26.378Z,0
2018-01-12T02:15:36.326Z,0
2018-01-12T02:16:46.276Z,0
2018-01-12T02:17:56.215Z,0
2018-01-12T02:19:06.153Z,0
2018-01-12T02:20:16.094Z,0
2018-01-12T02:21:25.786Z,0
2018-01-12T02:22:35.746Z,0
2018-01-12T02:23:45.698Z,0
2018-01-12T02:24:55.642Z,0
2018-01-12T02:26:05.601Z,0
2018-01-12T02:27:15.542Z,0
2018-01-12T02:28:25.235Z,0
2018-01-12T02:29:35.172Z,0
2018-01-12T02:30:44.857Z,0
2018-01-12T02:31:54.566Z,0
2018-01-12T02:33:04.548Z,0
2018-01-12T02:34:14.259Z,0
2018-01-12T02:35:23.953Z,0
2018-01-12T02:36:33.909Z,0
2018-01-12T02:37:43.871Z,0
2018-01-12T02:38:53.309Z,0
2018-01-12T02:40:03.000Z,0
2018-01-12T02:41:12.944Z,0
2018-01-12T02:42:22.906Z,0
2018-01-12T02:43:32.606Z,0
2018-01-12T02:44:42.548Z,0
2018-01-12T02:45:52.495Z,0
2018-01-12T02:47:02.200Z,0
2018-01-12T02:48:11.886Z,0
2018-01-12T02:49:21.577Z,0
2018-01-12T02:50:31.014Z,0
2018-01-12T02:51:40.963Z,0
2018-01-12T02:52:50.901Z,0
2018-01-12T02:54:00.851Z,0
2018-01-12T02:55:10.825Z,0
2018-01-12T02:56:20.766Z,0
2018-01-12T02:57:30.463Z,0
2018-01-12T02:58:40.417Z,0
2018-01-12T02:59:50.365Z,0
2018-01-12T03:01:00.385Z,0
2018-01-12T03:02:10.344Z,0
2018-01-12T03:03:20.034Z,0
2018-01-12T03:04:29.986Z,0
2018-01-12T03:05:40.158Z,0
2018-01-12T03:06:50.112Z,0
2018-01-12T03:07:59.804Z,0
2018-01-12T03:09:09.764Z,0
2018-01-12T03:10:19.447Z,0
2018-01-12T03:11:29.399Z,0
2018-01-12T03:12:39.097Z,0
2018-01-12T03:13:48.785Z,0
2018-01-12T03:14:58.465Z,0
2018-01-12T03:16:08.407Z,0
2018-01-12T03:17:18.357Z,0
2018-01-12T03:18:28.328Z,0
2018-01-12T03:19:38.282Z,0
2018-01-12T03:20:48.226Z,0
2018-01-12T03:21:58.169Z,0
2018-01-12T03:23:07.855Z,0
2018-01-12T03:24:17.790Z,0
2018-01-12T03:25:27.487Z,0
2018-01-12T03:26:37.440Z,0
2018-01-12T03:27:47.129Z,0
2018-01-12T03:28:56.831Z,0
2018-01-12T03:30:06.861Z,0
2018-01-12T03:31:16.591Z,0
2018-01-12T03:32:26.284Z,0
2018-01-12T03:33:35.984Z,0
2018-01-12T03:34:45.930Z,0
2018-01-12T03:35:55.874Z,0
2018-01-12T03:37:05.841Z,0
2018-01-12T03:38:15.528Z,0
2018-01-12T03:39:25.222Z,0
2018-01-12T03:40:35.167Z,0
2018-01-12T03:41:45.180Z,0
2018-01-12T03:42:55.122Z,0
2018-01-12T03:44:05.071Z,0
2018-01-12T03:45:15.013Z,0
2018-01-12T03:46:24.957Z,0
2018-01-12T03:47:34.900Z,0
2018-01-12T03:48:44.585Z,0
2018-01-12T03:49:54.526Z,0
2018-01-12T03:51:04.462Z,0
2018-01-12T03:52:14.163Z,0
2018-01-12T03:53:24.102Z,0
2018-01-12T03:54:34.040Z,0
2018-01-12T03:55:43.473Z,0
2018-01-12T03:56:53.162Z,0
2018-01-12T03:58:03.111Z,0
2018-01-12T03:59:13.063Z,0
2018-01-12T04:00:22.491Z,0
2018-01-12T04:01:31.923Z,0
2018-01-12T04:02:41.857Z,0
2018-01-12T04:03:51.537Z,0
2018-01-12T04:05:01.478Z,0
2018-01-12T04:06:11.426Z,0
2018-01-12T04:07:21.403Z,0
2018-01-12T04:08:31.344Z,0
2018-01-12T04:09:41.290Z,0
2018-01-12T04:10:50.995Z,0
2018-01-12T04:12:00.953Z,0
2018-01-12T04:13:10.903Z,0
2018-01-12T04:14:20.588Z,0
2018-01-12T04:15:30.272Z,0
2018-01-12T04:16:40.223Z,0
2018-01-12T04:17:50.171Z,0
2018-01-12T04:19:00.138Z,0
2018-01-12T04:20:10.098Z,0
2018-01-12T04:21:19.792Z,0
2018-01-12T04:22:29.743Z,0
2018-01-12T04:23:39.688Z,0
2018-01-12T04:24:49.389Z,0
2018-01-12T04:25:59.346Z,0
2018-01-12T04:27:09.040Z,0
2018-01-12T04:28:18.991Z,0
2018-01-12T04:29:28.950Z,0
2018-01-12T04:30:38.888Z,0
2018-01-12T04:31:48.836Z,0
2018-01-12T04:32:58.267Z,0
2018-01-12T04:34:08.216Z,0
2018-01-12T04:35:18.075Z,0
2018-01-12T04:36:28.025Z,0
2018-01-12T04:37:37.716Z,0
2018-01-12T04:38:47.664Z,0
2018-01-12T04:39:57.607Z,0
2018-01-12T04:41:07.556Z,0
2018-01-12T04:42:17.502Z,0
2018-01-12T04:43:27.442Z,0
2018-01-12T04:44:37.381Z,0
2018-01-12T04:45:47.328Z,0
2018-01-12T04:46:57.027Z,0
2018-01-12T04:48:06.723Z,0
2018-01-12T04:49:15.901Z,0
2018-01-12T04:50:25.598Z,0
2018-01-12T04:51:35.539Z,0
2018-01-12T04:52:45.035Z,0
2018-01-12T04:53:54.743Z,0
2018-01-12T04:55:04.698Z,0
2018-01-12T04:56:14.642Z,0
2018-01-12T04:57:24.104Z,0
2018-01-12T04:58:33.790Z,0
2018-01-12T04:59:42.977Z,0
2018-01-12T05:00:52.956Z,0
2018-01-12T05:02:02.919Z,0
2018-01-12T05:03:12.874Z,0
2018-01-12T05:04:22.575Z,0
2018-01-12T05:05:32.545Z,0
2018-01-12T05:06:42.500Z,0
2018-01-12T05:07:52.198Z,0
2018-01-12T05:09:02.167Z,0
2018-01-12T05:10:12.125Z,0
2018-01-12T05:11:22.078Z,0
2018-01-12T05:12:32.044Z,0
2018-01-12T05:13:42.000Z,0
2018-01-12T05:14:51.966Z,0
2018-01-12T05:16:01.674Z,0
2018-01-12T05:17:11.382Z,0
2018-01-12T05:18:21.340Z,0
2018-01-12T05:19:31.304Z,0
2018-01-12T05:20:41.262Z,0
2018-01-12T05:21:51.221Z,0
2018-01-12T05:23:01.224Z,0
2018-01-12T05:24:11.190Z,0
2018-01-12T05:25:20.619Z,0
2018-01-12T05:26:30.309Z,0
2018-01-12T05:27:40.001Z,0
2018-01-12T05:28:49.961Z,0
2018-01-12T05:29:59.901Z,0
2018-01-12T05:31:09.852Z,0
2018-01-12T05:32:19.801Z,0
2018-01-12T05:33:29.754Z,0
2018-01-12T05:34:39.713Z,0
2018-01-12T05:35:49.671Z,0
2018-01-12T05:36:59.354Z,0
2018-01-12T05:38:09.066Z,0
2018-01-12T05:39:19.028Z,0
2018-01-12T05:40:28.721Z,0
2018-01-12T05:41:38.737Z,0
2018-01-12T05:42:48.685Z,0
2018-01-12T05:43:58.123Z,0
2018-01-12T05:45:08.069Z,0
2018-01-12T05:46:17.774Z,0
2018-01-12T05:47:27.720Z,0
2018-01-12T05:48:37.674Z,0
2018-01-12T05:49:47.625Z,0
2018-01-12T05:50:57.578Z,0
2018-01-12T05:52:07.272Z,0
2018-01-12T05:53:16.972Z,0
2018-01-12T05:54:26.660Z,0
2018-01-12T05:55:36.617Z,0
2018-01-12T05:56:46.313Z,0
2018-01-12T05:57:56.003Z,0
2018-01-12T05:59:05.948Z,0
2018-01-12T06:00:15.643Z,0
2018-01-12T06:01:25.597Z,0
2018-01-12T06:02:35.295Z,0
2018-01-12T06:03:44.735Z,0
2018-01-12T06:04:54.688Z,0
2018-01-12T06:06:04.639Z,0
2018-01-12T06:07:14.599Z,0
2018-01-12T06:08:24.536Z,0
2018-01-12T06:09:34.486Z,0
2018-01-12T06:10:44.436Z,0
2018-01-12T06:11:54.444Z,0
2018-01-12T06:13:04.454Z,0
2018-01-12T06:14:14.158Z,0
2018-01-12T06:15:24.104Z,0
2018-01-12T06:16:34.305Z,0
2018-01-12T06:17:44.253Z,0
2018-01-12T06:18:53.948Z,0
2018-01-12T06:20:03.422Z,0
2018-01-12T06:21:13.115Z,0
2018-01-12T06:22:23.061Z,0
2018-01-12T06:23:32.773Z,0
2018-01-12T06:24:42.740Z,0
2018-01-12T06:25:52.183Z,0
2018-01-12T06:27:02.138Z,0
2018-01-12T06:28:12.097Z,0
2018-01-12T06:29:21.542Z,0
2018-01-12T06:30:31.490Z,0
2018-01-12T06:31:41.446Z,0
2018-01-12T06:32:51.127Z,0
2018-01-12T06:34:01.074Z,0
2018-01-12T06:35:11.018Z,0
2018-01-12T06:36:20.972Z,0
2018-01-12T06:37:30.940Z,0
2018-01-12T06:38:41.029Z,0
2018-01-12T06:39:50.973Z,0
2018-01-12T06:41:01.104Z,4
2018-01-12T06:42:11.068Z,4
2018-01-12T06:43:20.757Z,0
2018-01-12T06:44:30.719Z,0
2018-01-12T06:45:40.658Z,4
2018-01-12T06:46:50.621Z,4
2018-01-12T06:48:00.309Z,4
2018-01-12T06:49:10.276Z,4
2018-01-12T06:50:20.279Z,4
2018-01-12T06:51:29.964Z,4
2018-01-12T06:52:39.943Z,8
2018-01-12T06:53:49.908Z,8
2018-01-12T06:54:59.874Z,12
2018-01-12T06:56:09.560Z,12
2018-01-12T06:57:18.988Z,12
2018-01-12T06:58:28.690Z,16
2018-01-12T06:59:38.399Z,16
2018-01-12T07:00:48.356Z,20
2018-01-12T07:01:58.055Z,24
2018-01-12T07:03:08.037Z,28
2018-01-12T07:04:18.043Z,28
2018-01-12T07:05:27.997Z,28
2018-01-12T07:06:38.223Z,36
2018-01-12T07:07:48.169Z,40
2018-01-12T07:08:57.866Z,44
2018-01-12T07:10:07.826Z,48
2018-01-12T07:11:17.805Z,52
2018-01-12T07:12:27.743Z,60
2018-01-12T07:13:37.421Z,68
2018-01-12T07:14:46.873Z,68
2018-01-12T07:15:56.837Z,76
2018-01-12T07:17:06.536Z,84
2018-01-12T07:18:16.490Z,76
2018-01-12T07:19:26.489Z,100
2018-01-12T07:20:36.436Z,100
2018-01-12T07:21:46.128Z,112
2018-01-12T07:22:56.083Z,120
2018-01-12T07:24:06.047Z,124
2018-01-12T07:25:15.996Z,136
2018-01-12T07:26:25.175Z,136
2018-01-12T07:27:35.134Z,156
2018-01-12T07:28:45.075Z,148
2018-01-12T07:29:54.789Z,168
2018-01-12T07:31:04.481Z,204
2018-01-12T07:32:14.190Z,224
2018-01-12T07:33:24.159Z,200
2018-01-12T07:34:34.128Z,212
2018-01-12T07:35:44.080Z,248
2018-01-12T07:36:54.029Z,324
2018-01-12T07:38:03.722Z,304
2018-01-12T07:39:13.434Z,328
2018-01-12T07:40:23.123Z,312
2018-01-12T07:41:33.079Z,364
2018-01-12T07:42:43.037Z,384
2018-01-12T07:43:53.005Z,340
2018-01-12T07:45:02.963Z,356
2018-01-12T07:46:12.653Z,388
2018-01-12T07:47:22.816Z,420
2018-01-12T07:48:32.807Z,492
2018-01-12T07:49:42.750Z,520
2018-01-12T07:50:52.766Z,592
2018-01-12T07:52:02.726Z,576
2018-01-12T07:53:12.496Z,580
2018-01-12T07:54:22.452Z,612
2018-01-12T07:55:32.153Z,712
2018-01-12T07:56:42.118Z,820
2018-01-12T07:57:51.801Z,872
2018-01-12T07:59:01.500Z,1012
2018-01-12T08:00:11.188Z,1024
2018-01-12T08:01:20.893Z,884
2018-01-12T08:02:30.909Z,832
2018-01-12T08:03:40.610Z,776
2018-01-12T08:04:50.586Z,932
2018-01-12T08:06:00.300Z,992
2018-01-12T08:07:10.257Z,1028
2018-01-12T08:08:20.223Z,944
2018-01-12T08:09:30.184Z,856
2018-01-12T08:10:40.146Z,844
2018-01-12T08:11:50.136Z,916
2018-01-12T08:13:00.110Z,1144
2018-01-12T08:14:10.116Z,1200
2018-01-12T08:15:20.110Z,1148
2018-01-12T08:16:30.061Z,1168
2018-01-12T08:17:39.778Z,1276
2018-01-12T08:18:49.862Z,1392
2018-01-12T08:19:59.608Z,1484
2018-01-12T08:21:09.305Z,1536
2018-01-12T08:22:19.261Z,1720
2018-01-12T08:23:28.440Z,1772
2018-01-12T08:24:38.389Z,2068
2018-01-12T08:25:48.080Z,2144
2018-01-12T08:26:58.029Z,2112
2018-01-12T08:28:07.971Z,1924
2018-01-12T08:29:17.950Z,1728
2018-01-12T08:30:27.959Z,1416
2018-01-12T08:31:37.905Z,1172
2018-01-12T08:32:47.342Z,968
2018-01-12T08:33:57.332Z,868
2018-01-12T08:35:07.298Z,856
2018-01-12T08:36:17.298Z,1076
2018-01-12T08:37:27.266Z,1232
2018-01-12T08:38:37.210Z,1320
2018-01-12T08:39:46.901Z,1404
2018-01-12T08:40:56.844Z,1652
2018-01-12T08:42:06.830Z,1652
2018-01-12T08:43:16.545Z,1528
2018-01-12T08:44:26.562Z,1556
2018-01-12T08:45:36.223Z,1740
2018-01-12T08:46:46.186Z,1924
2018-01-12T08:47:56.125Z,2164
2018-01-12T08:49:06.061Z,2216
2018-01-12T08:50:16.018Z,2176
2018-01-12T08:51:25.977Z,2300
2018-01-12T08:52:35.919Z,2376
2018-01-12T08:53:45.863Z,2632
2018-01-12T08:54:55.550Z,2172
2018-01-12T08:56:04.993Z,1980
2018-01-12T08:57:14.425Z,1680
2018-01-12T08:58:24.145Z,1496
2018-01-12T08:59:34.101Z,1284
2018-01-12T09:00:44.057Z,1156
2018-01-12T09:01:54.016Z,1188
2018-01-12T09:03:03.988Z,1148
2018-01-12T09:04:13.947Z,1132
2018-01-12T09:05:23.886Z,1192
2018-01-12T09:06:33.865Z,1120
2018-01-12T09:07:43.807Z,1196
2018-01-12T09:08:53.771Z,1292
2018-01-12T09:10:03.711Z,1452
2018-01-12T09:11:13.660Z,1648
2018-01-12T09:12:23.627Z,1760
2018-01-12T09:13:33.570Z,2076
2018-01-12T09:14:43.521Z,1828
2018-01-12T09:15:53.220Z,2128
2018-01-12T09:17:02.954Z,2160
2018-01-12T09:18:12.935Z,2108
2018-01-12T09:19:22.895Z,2212
2018-01-12T09:20:32.860Z,2088
2018-01-12T09:21:42.334Z,2176
2018-01-12T09:22:52.269Z,2256
2018-01-12T09:24:01.977Z,2464
2018-01-12T09:25:11.932Z,2888
2018-01-12T09:26:21.625Z,2536
2018-01-12T09:27:31.595Z,2300
2018-01-12T09:28:41.016Z,2088
2018-01-12T09:29:50.962Z,2180
2018-01-12T09:31:00.922Z,2388
2018-01-12T09:32:10.861Z,2260
2018-01-12T09:33:20.811Z,2076
2018-01-12T09:34:30.872Z,2088
2018-01-12T09:35:40.568Z,2092
2018-01-12T09:36:50.522Z,2188
2018-01-12T09:38:00.481Z,2396
2018-01-12T09:39:10.435Z,2420
2018-01-12T09:40:20.406Z,2200
2018-01-12T09:41:30.102Z,2204
2018-01-12T09:42:40.058Z,2136
2018-01-12T09:43:50.014Z,2504
2018-01-12T09:44:59.717Z,2608
2018-01-12T09:46:09.672Z,2168
2018-01-12T09:47:19.375Z,1780
2018-01-12T09:48:29.334Z,1964
2018-01-12T09:49:38.767Z,2564
2018-01-12T09:50:48.447Z,2424
2018-01-12T09:51:58.405Z,2032
2018-01-12T09:53:08.105Z,1940
2018-01-12T09:54:17.852Z,1956
2018-01-12T09:55:27.542Z,2044
2018-01-12T09:56:37.245Z,2288
2018-01-12T09:57:47.170Z,2212
2018-01-12T09:58:57.122Z,1848
2018-01-12T10:00:07.116Z,1960
2018-01-12T10:01:16.824Z,2000
2018-01-12T10:02:26.277Z,2364
2018-01-12T10:03:36.490Z,2256
2018-01-12T10:04:46.236Z,2248
2018-01-12T10:05:56.263Z,2196
2018-01-12T10:07:05.961Z,2156
2018-01-12T10:08:15.897Z,2064
2018-01-12T10:09:25.846Z,2164
2018-01-12T10:10:35.761Z,1832
2018-01-12T10:11:45.699Z,1756
2018-01-12T10:12:55.387Z,1904
2018-01-12T10:14:05.376Z,2280
2018-01-12T10:15:15.061Z,2888
2018-01-12T10:16:24.998Z,2880
2018-01-12T10:17:34.941Z,2824
2018-01-12T10:18:44.626Z,2576
2018-01-12T10:19:54.576Z,2692
2018-01-12T10:21:04.962Z,3124
2018-01-12T10:22:14.911Z,2764
2018-01-12T10:23:24.928Z,2536
2018-01-12T10:24:34.878Z,2768
2018-01-12T10:25:44.822Z,3244
2018-01-12T10:26:54.780Z,3420
2018-01-12T10:28:04.749Z,2840
2018-01-12T10:29:14.695Z,2808
2018-01-12T10:30:24.393Z,2816
2018-01-12T10:31:34.380Z,3084
2018-01-12T10:32:44.069Z,3488
2018-01-12T10:33:53.820Z,3196
2018-01-12T10:35:03.801Z,2832
2018-01-12T10:36:13.756Z,2676
2018-01-12T10:37:23.705Z,3072
2018-01-12T10:38:33.405Z,3148
2018-01-12T10:39:43.123Z,2724
2018-01-12T10:40:53.070Z,2184
2018-01-12T10:42:03.095Z,2104
2018-01-12T10:43:13.118Z,2844
2018-01-12T10:44:22.829Z,3008
2018-01-12T10:45:32.839Z,2896
2018-01-12T10:46:43.135Z,2824
2018-01-12T10:47:53.136Z,2784
2018-01-12T10:49:04.591Z,2884
2018-01-12T10:50:14.658Z,2804
2018-01-12T10:51:24.370Z,2712
2018-01-12T10:52:34.323Z,2480
2018-01-12T10:53:44.276Z,2480
2018-01-12T10:54:54.279Z,2400
2018-01-12T10:56:04.253Z,2432
2018-01-12T10:57:13.951Z,2544
2018-01-12T10:58:23.935Z,2428
2018-01-12T10:59:33.671Z,2404
2018-01-12T11:00:43.642Z,2556
2018-01-12T11:01:53.349Z,2328
2018-01-12T11:03:03.320Z,2552
2018-01-12T11:04:13.273Z,2372
2018-01-12T11:05:22.958Z,2120
2018-01-12T11:06:32.658Z,1888
2018-01-12T11:07:42.358Z,1920
2018-01-12T11:08:52.323Z,1884
2018-01-12T11:10:02.280Z,1840
2018-01-12T11:11:12.244Z,2260
2018-01-12T11:12:21.950Z,2212
2018-01-12T11:13:31.652Z,2140
2018-01-12T11:14:41.616Z,2232
2018-01-12T11:15:51.357Z,2472
2018-01-12T11:17:01.330Z,2664
2018-01-12T11:18:11.281Z,2808
2018-01-12T11:19:21.267Z,2468
2018-01-12T11:20:30.998Z,2388
2018-01-12T11:21:41.066Z,2452
2018-01-12T11:22:51.068Z,2364
2018-01-12T11:24:01.268Z,2356
2018-01-12T11:25:11.912Z,2412
2018-01-12T11:26:21.879Z,2432
2018-01-12T11:27:31.855Z,2572
2018-01-12T11:28:41.550Z,2748
2018-01-12T11:29:50.998Z,2736
2018-01-12T11:31:00.960Z,3048
2018-01-12T11:32:10.932Z,2808
2018-01-12T11:33:20.742Z,2640
2018-01-12T11:34:30.840Z,2780
2018-01-12T11:35:40.821Z,2996
2018-01-12T11:36:50.543Z,2904
2018-01-12T11:38:00.540Z,2788
2018-01-12T11:39:10.239Z,2748
2018-01-12T11:40:19.663Z,2752
2018-01-12T11:41:29.378Z,2484
2018-01-12T11:42:39.065Z,2368
2018-01-12T11:43:48.820Z,2396
2018-01-12T11:44:58.833Z,2532
2018-01-12T11:46:08.787Z,2512
2018-01-12T11:47:18.228Z,2284
2018-01-12T11:48:27.956Z,2144
2018-01-12T11:49:37.943Z,2420
2018-01-12T11:50:47.741Z,2528
2018-01-12T11:51:57.439Z,2684
2018-01-12T11:53:07.162Z,2724
2018-01-12T11:54:17.143Z,2544
2018-01-12T11:55:27.126Z,2696
2018-01-12T11:56:37.094Z,2660
2018-01-12T11:57:47.054Z,2920
2018-01-12T11:58:56.984Z,2656
2018-01-12T12:00:06.676Z,2528
2018-01-12T12:01:16.651Z,2688
2018-01-12T12:02:26.654Z,2392
2018-01-12T12:03:36.632Z,2400
2018-01-12T12:04:46.602Z,2540
2018-01-12T12:05:56.550Z,2444
2018-01-12T12:07:06.531Z,2596
2018-01-12T12:08:16.496Z,2776
2018-01-12T12:09:26.446Z,2912
2018-01-12T12:10:36.118Z,2636
2018-01-12T12:11:46.074Z,2556
2018-01-12T12:12:56.023Z,2700
2018-01-12T12:14:05.983Z,2816
2018-01-12T12:15:15.942Z,2688
2018-01-12T12:16:25.881Z,2844
2018-01-12T12:17:35.585Z,2620
2018-01-12T12:18:45.315Z,2604
2018-01-12T12:19:55.005Z,2856
2018-01-12T12:21:04.953Z,2864
2018-01-12T12:22:14.652Z,2596
2018-01-12T12:23:24.352Z,2520
2018-01-12T12:24:34.297Z,2748
2018-01-12T12:25:44.244Z,2340
2018-01-12T12:26:53.947Z,2360
2018-01-12T12:28:03.642Z,2428
2018-01-12T12:29:13.586Z,2404
2018-01-12T12:30:23.275Z,2292
2018-01-12T12:31:32.980Z,2220
2018-01-12T12:32:42.942Z,2192
2018-01-12T12:33:52.638Z,2332
2018-01-12T12:35:02.637Z,2248
2018-01-12T12:36:12.321Z,2172
2018-01-12T12:37:22.014Z,2552
2018-01-12T12:38:32.010Z,2528
2018-01-12T12:39:41.958Z,2256
2018-01-12T12:40:51.900Z,2140
2018-01-12T12:42:01.622Z,2144
2018-01-12T12:43:11.319Z,2120
2018-01-12T12:44:21.303Z,2332
2018-01-12T12:45:31.250Z,2500
2018-01-12T12:46:40.964Z,2552
2018-01-12T12:47:50.912Z,2632
2018-01-12T12:49:00.604Z,2724
2018-01-12T12:50:10.568Z,2444
2018-01-12T12:51:20.515Z,2160
2018-01-12T12:52:30.232Z,2160
2018-01-12T12:53:40.199Z,2288
2018-01-12T12:54:50.176Z,2372
2018-01-12T12:56:00.152Z,2432
2018-01-12T12:57:10.113Z,2176
2018-01-12T12:58:20.094Z,2700
2018-01-12T12:59:30.050Z,2768
2018-01-12T13:00:39.756Z,2196
2018-01-12T13:01:49.713Z,2036
2018-01-12T13:02:58.909Z,1968
2018-01-12T13:04:08.872Z,2080
2018-01-12T13:05:18.827Z,2124
2018-01-12T13:06:28.548Z,2252
2018-01-12T13:07:38.235Z,2196
2018-01-12T13:08:48.201Z,2116
2018-01-12T13:09:58.170Z,2356
2018-01-12T13:11:08.128Z,2500
2018-01-12T13:12:17.814Z,2524
2018-01-12T13:13:27.776Z,2372
2018-01-12T13:14:37.724Z,2396
2018-01-12T13:15:47.686Z,2276
2018-01-12T13:16:57.662Z,2524
2018-01-12T13:18:07.626Z,2356
2018-01-12T13:19:17.567Z,2336
2018-01-12T13:20:27.263Z,1984
2018-01-12T13:21:37.230Z,1728
2018-01-12T13:22:47.212Z,1980
2018-01-12T13:23:57.161Z,1700
2018-01-12T13:25:06.873Z,1656
2018-01-12T13:26:16.853Z,1660
2018-01-12T13:27:26.582Z,1712
2018-01-12T13:28:36.539Z,1936
2018-01-12T13:29:46.476Z,1952
2018-01-12T13:30:56.653Z,1964
2018-01-12T13:32:06.604Z,1872
2018-01-12T13:33:16.626Z,1780
2018-01-12T13:34:26.587Z,1796
2018-01-12T13:35:36.803Z,1876
2018-01-12T13:36:46.773Z,1748
2018-01-12T13:37:56.748Z,1892
2018-01-12T13:39:06.480Z,1748
2018-01-12T13:40:16.440Z,1872
2018-01-12T13:41:26.458Z,1720
2018-01-12T13:42:36.424Z,1544
2018-01-12T13:43:45.906Z,1484
2018-01-12T13:44:55.605Z,1576
2018-01-12T13:46:05.565Z,1292
2018-01-12T13:47:15.514Z,1248
2018-01-12T13:48:25.463Z,1200
2018-01-12T13:49:35.152Z,1164
2018-01-12T13:50:44.899Z,1240
2018-01-12T13:51:54.838Z,1220
2018-01-12T13:53:04.814Z,1276
2018-01-12T13:54:14.758Z,1316
2018-01-12T13:55:24.460Z,1232
2018-01-12T13:56:34.434Z,1180
2018-01-12T13:57:44.383Z,1140
2018-01-12T13:58:54.334Z,1128
2018-01-12T14:00:04.300Z,1112
2018-01-12T14:01:14.254Z,1172
2018-01-12T14:02:24.264Z,1280
2018-01-12T14:03:34.235Z,1172
2018-01-12T14:04:44.183Z,1096
2018-01-12T14:05:54.141Z,1040
2018-01-12T14:07:03.565Z,976
2018-01-12T14:08:13.744Z,952
2018-01-12T14:09:23.444Z,928
2018-01-12T14:10:33.157Z,924
2018-01-12T14:11:42.593Z,920
2018-01-12T14:12:52.288Z,980
2018-01-12T14:14:02.237Z,960
2018-01-12T14:15:12.184Z,920
2018-01-12T14:16:21.883Z,796
2018-01-12T14:17:31.831Z,748
2018-01-12T14:18:41.267Z,700
2018-01-12T14:19:51.222Z,716
2018-01-12T14:21:00.905Z,672
2018-01-12T14:22:10.849Z,588
2018-01-12T14:23:20.790Z,640
2018-01-12T14:24:30.494Z,672
2018-01-12T14:25:40.431Z,584
2018-01-12T14:26:50.460Z,588
2018-01-12T14:27:59.892Z,572
2018-01-12T14:29:09.839Z,504
2018-01-12T14:30:19.798Z,536
2018-01-12T14:31:29.495Z,532
2018-01-12T14:32:39.465Z,488
2018-01-12T14:33:48.947Z,496
2018-01-12T14:34:58.644Z,440
2018-01-12T14:36:08.584Z,404
2018-01-12T14:37:18.534Z,388
2018-01-12T14:38:28.690Z,372
2018-01-12T14:39:38.631Z,352
2018-01-12T14:40:48.591Z,336
2018-01-12T14:41:58.280Z,332
2018-01-12T14:43:08.232Z,324
2018-01-12T14:44:18.257Z,332
2018-01-12T14:45:28.253Z,308
2018-01-12T14:46:38.207Z,284
2018-01-12T14:47:47.886Z,292
2018-01-12T14:48:57.836Z,316
2018-01-12T14:50:07.521Z,268
2018-01-12T14:51:17.481Z,276
2018-01-12T14:52:27.431Z,236
2018-01-12T14:53:37.372Z,232
2018-01-12T14:54:47.064Z,212
2018-01-12T14:55:56.761Z,216
2018-01-12T14:57:06.456Z,204
2018-01-12T14:58:16.233Z,192
2018-01-12T14:59:26.178Z,176
2018-01-12T15:00:36.130Z,168
2018-01-12T15:01:46.077Z,164
2018-01-12T15:02:56.021Z,156
2018-01-12T15:04:05.729Z,168
2018-01-12T15:05:15.451Z,144
2018-01-12T15:06:25.446Z,144
2018-01-12T15:07:35.171Z,140
2018-01-12T15:08:45.122Z,120
2018-01-12T15:09:55.074Z,92
2018-01-12T15:11:05.022Z,96
2018-01-12T15:12:14.713Z,96
2018-01-12T15:13:24.670Z,80
2018-01-12T15:14:34.642Z,76
2018-01-12T15:15:44.596Z,72
2018-01-12T15:16:54.563Z,72
2018-01-12T15:18:04.568Z,64
2018-01-12T15:19:14.279Z,52
2018-01-12T15:20:23.969Z,48
2018-01-12T15:21:33.921Z,44
2018-01-12T15:22:43.862Z,36
2018-01-12T15:23:53.565Z,32
2018-01-12T15:25:03.505Z,32
2018-01-12T15:26:13.443Z,28
2018-01-12T15:27:23.162Z,28
2018-01-12T15:28:33.132Z,24
2018-01-12T15:29:43.077Z,20
2018-01-12T15:30:52.776Z,16
2018-01-12T15:32:02.720Z,16
2018-01-12T15:33:12.668Z,16
2018-01-12T15:34:22.641Z,12
2018-01-12T15:35:32.346Z,12
2018-01-12T15:36:42.042Z,8
2018-01-12T15:37:51.784Z,8
2018-01-12T15:39:01.725Z,8
2018-01-12T15:40:11.686Z,4
2018-01-12T15:41:21.624Z,0
2018-01-12T15:42:31.581Z,4
2018-01-12T15:43:41.529Z,4
2018-01-12T15:44:51.495Z,0
2018-01-12T15:46:01.458Z,0
2018-01-12T15:47:11.148Z,4
2018-01-12T15:48:20.584Z,0
2018-01-12T15:49:30.012Z,0
2018-01-12T15:50:39.976Z,0
2018-01-12T15:51:49.670Z,0
2018-01-12T15:52:59.109Z,0
2018-01-12T15:54:08.801Z,0
2018-01-12T15:55:18.508Z,0
2018-01-12T15:56:28.463Z,0
2018-01-12T15:57:38.162Z,0
2018-01-12T15:58:47.857Z,0
2018-01-12T15:59:57.801Z,0
2018-01-12T16:01:07.486Z,0
2018-01-12T16:02:17.534Z,0
2018-01-12T16:03:27.487Z,0
2018-01-12T16:04:37.488Z,0
2018-01-12T16:05:47.189Z,0
2018-01-12T16:06:57.156Z,0
2018-01-12T16:08:07.106Z,0
2018-01-12T16:09:16.800Z,0
2018-01-12T16:10:26.763Z,0
2018-01-12T16:11:36.698Z,0
2018-01-12T16:12:46.408Z,0
2018-01-12T16:13:56.358Z,0
2018-01-12T16:15:06.044Z,0
2018-01-12T16:16:16.008Z,0
2018-01-12T16:17:26.022Z,0
2018-01-12T16:18:36.008Z,0
2018-01-12T16:19:45.963Z,0
2018-01-12T16:20:55.925Z,0
2018-01-12T16:22:05.884Z,0
2018-01-12T16:23:15.835Z,0